sensor_id;sensor_type;location;lat;lon;timestamp;temperature;humidity
53314;DHT22;39202;51.468;7.146;2022-12-10T00:01:04;22.40;41.50
53314;DHT22;39202;51.468;7.146;2022-12-10T00:06:08;22.50;41.60
53314;DHT22;39202;51.468;7.146;2022-12-10T00:11:13;22.50;41.60
53314;DHT22;39202;51.468;7.146;2022-12-10T00:16:18;22.50;41.60
53314;DHT22;39202;51.468;7.146;2022-12-10T00:21:22;22.50;41.60
53314;DHT22;39202;51.468;7.146;2022-12-10T00:26:27;22.50;41.60
53314;DHT22;39202;51.468;7.146;2022-12-10T00:31:31;22.50;41.60
53314;DHT22;39202;51.468;7.146;2022-12-10T00:36:34;22.50;41.50
53314;DHT22;39202;51.468;7.146;2022-12-10T00:41:38;22.50;41.50
53314;DHT22;39202;51.468;7.146;2022-12-10T00:46:39;22.50;41.40
53314;DHT22;39202;51.468;7.146;2022-12-10T00:51:41;22.50;41.40
53314;DHT22;39202;51.468;7.146;2022-12-10T00:56:44;22.50;41.40
53314;DHT22;39202;51.468;7.146;2022-12-10T01:01:47;22.50;41.40
53314;DHT22;39202;51.468;7.146;2022-12-10T01:06:50;22.50;41.30
53314;DHT22;39202;51.468;7.146;2022-12-10T01:11:55;22.50;41.40
53314;DHT22;39202;51.468;7.146;2022-12-10T01:16:59;22.50;41.40
53314;DHT22;39202;51.468;7.146;2022-12-10T01:22:03;22.40;41.40
53314;DHT22;39202;51.468;7.146;2022-12-10T01:27:06;22.40;41.40
53314;DHT22;39202;51.468;7.146;2022-12-10T01:32:08;22.40;41.40
53314;DHT22;39202;51.468;7.146;2022-12-10T01:37:10;22.40;41.40
53314;DHT22;39202;51.468;7.146;2022-12-10T01:42:13;22.40;41.40
53314;DHT22;39202;51.468;7.146;2022-12-10T01:47:15;22.40;41.50
53314;DHT22;39202;51.468;7.146;2022-12-10T01:52:18;22.40;41.50
53314;DHT22;39202;51.468;7.146;2022-12-10T01:57:24;22.40;42.20
53314;DHT22;39202;51.468;7.146;2022-12-10T02:02:34;22.40;41.60
53314;DHT22;39202;51.468;7.146;2022-12-10T02:07:51;22.40;41.60
53314;DHT22;39202;51.468;7.146;2022-12-10T02:13:00;22.40;41.60
53314;DHT22;39202;51.468;7.146;2022-12-10T02:18:06;22.50;41.60
53314;DHT22;39202;51.468;7.146;2022-12-10T02:23:11;22.50;41.70
53314;DHT22;39202;51.468;7.146;2022-12-10T02:28:30;22.50;41.50
53314;DHT22;39202;51.468;7.146;2022-12-10T02:33:39;22.50;41.50
53314;DHT22;39202;51.468;7.146;2022-12-10T02:38:41;22.50;41.50
53314;DHT22;39202;51.468;7.146;2022-12-10T02:43:45;22.50;41.50
53314;DHT22;39202;51.468;7.146;2022-12-10T02:48:50;22.50;41.40
53314;DHT22;39202;51.468;7.146;2022-12-10T02:53:59;22.50;41.40
53314;DHT22;39202;51.468;7.146;2022-12-10T02:59:09;22.50;41.40
53314;DHT22;39202;51.468;7.146;2022-12-10T03:04:22;22.40;41.30
53314;DHT22;39202;51.468;7.146;2022-12-10T03:09:30;22.40;41.30
53314;DHT22;39202;51.468;7.146;2022-12-10T03:14:36;22.40;41.40
53314;DHT22;39202;51.468;7.146;2022-12-10T03:19:42;22.40;41.40
53314;DHT22;39202;51.468;7.146;2022-12-10T03:24:44;22.40;41.40
53314;DHT22;39202;51.468;7.146;2022-12-10T03:29:48;22.40;41.40
53314;DHT22;39202;51.468;7.146;2022-12-10T03:34:54;22.30;41.40
53314;DHT22;39202;51.468;7.146;2022-12-10T03:39:57;22.30;41.40
53314;DHT22;39202;51.468;7.146;2022-12-10T03:44:59;22.40;41.60
53314;DHT22;39202;51.468;7.146;2022-12-10T03:50:03;22.40;41.50
53314;DHT22;39202;51.468;7.146;2022-12-10T03:55:06;22.40;41.60
53314;DHT22;39202;51.468;7.146;2022-12-10T04:00:09;22.40;42.50
53314;DHT22;39202;51.468;7.146;2022-12-10T04:05:12;22.40;41.60
53314;DHT22;39202;51.468;7.146;2022-12-10T04:10:14;22.40;41.50
53314;DHT22;39202;51.468;7.146;2022-12-10T04:15:16;22.50;41.50
53314;DHT22;39202;51.468;7.146;2022-12-10T04:20:36;22.50;41.50
53314;DHT22;39202;51.468;7.146;2022-12-10T04:26:01;22.50;41.50
53314;DHT22;39202;51.468;7.146;2022-12-10T04:31:20;22.50;41.50
53314;DHT22;39202;51.468;7.146;2022-12-10T04:36:23;22.50;41.40
53314;DHT22;39202;51.468;7.146;2022-12-10T04:41:25;22.40;41.30
53314;DHT22;39202;51.468;7.146;2022-12-10T04:46:27;22.40;44.70
53314;DHT22;39202;51.468;7.146;2022-12-10T04:51:31;22.40;41.40
53314;DHT22;39202;51.468;7.146;2022-12-10T04:56:33;22.40;41.40
53314;DHT22;39202;51.468;7.146;2022-12-10T05:01:35;22.40;41.40
53314;DHT22;39202;51.468;7.146;2022-12-10T05:06:38;22.30;42.50
53314;DHT22;39202;51.468;7.146;2022-12-10T05:11:40;22.40;41.40
53314;DHT22;39202;51.468;7.146;2022-12-10T05:16:43;22.40;41.40
53314;DHT22;39202;51.468;7.146;2022-12-10T05:21:46;22.30;41.40
53314;DHT22;39202;51.468;7.146;2022-12-10T05:27:05;22.30;41.40
53314;DHT22;39202;51.468;7.146;2022-12-10T05:32:07;22.40;41.40
53314;DHT22;39202;51.468;7.146;2022-12-10T05:37:10;22.30;41.40
53314;DHT22;39202;51.468;7.146;2022-12-10T05:42:12;22.30;46.50
53314;DHT22;39202;51.468;7.146;2022-12-10T05:47:13;22.40;41.50
53314;DHT22;39202;51.468;7.146;2022-12-10T05:52:16;22.30;41.40
53314;DHT22;39202;51.468;7.146;2022-12-10T05:57:18;22.40;42.30
53314;DHT22;39202;51.468;7.146;2022-12-10T06:02:20;22.40;41.40
53314;DHT22;39202;51.468;7.146;2022-12-10T06:07:23;22.40;41.40
53314;DHT22;39202;51.468;7.146;2022-12-10T06:12:25;22.40;42.10
53314;DHT22;39202;51.468;7.146;2022-12-10T06:17:27;22.40;46.80
53314;DHT22;39202;51.468;7.146;2022-12-10T06:22:30;22.30;41.30
53314;DHT22;39202;51.468;7.146;2022-12-10T06:27:31;22.40;49.20
53314;DHT22;39202;51.468;7.146;2022-12-10T06:32:33;22.40;48.90
53314;DHT22;39202;51.468;7.146;2022-12-10T06:37:36;22.30;50.30
53314;DHT22;39202;51.468;7.146;2022-12-10T06:42:38;22.30;52.00
53314;DHT22;39202;51.468;7.146;2022-12-10T06:47:40;22.30;54.30
53314;DHT22;39202;51.468;7.146;2022-12-10T06:52:43;22.30;58.80
53314;DHT22;39202;51.468;7.146;2022-12-10T06:57:44;22.30;55.20
53314;DHT22;39202;51.468;7.146;2022-12-10T07:02:46;22.30;41.50
53314;DHT22;39202;51.468;7.146;2022-12-10T07:07:49;22.30;51.20
53314;DHT22;39202;51.468;7.146;2022-12-10T07:12:51;22.40;47.70
53314;DHT22;39202;51.468;7.146;2022-12-10T07:17:52;22.30;41.40
53314;DHT22;39202;51.468;7.146;2022-12-10T07:22:55;22.30;41.40
53314;DHT22;39202;51.468;7.146;2022-12-10T07:27:57;22.30;41.40
53314;DHT22;39202;51.468;7.146;2022-12-10T07:32:59;22.30;41.40
53314;DHT22;39202;51.468;7.146;2022-12-10T07:38:02;22.30;41.40
53314;DHT22;39202;51.468;7.146;2022-12-10T07:43:03;22.30;41.40
53314;DHT22;39202;51.468;7.146;2022-12-10T07:48:05;22.30;41.40
53314;DHT22;39202;51.468;7.146;2022-12-10T07:53:08;22.40;41.40
53314;DHT22;39202;51.468;7.146;2022-12-10T07:58:10;22.40;41.40
53314;DHT22;39202;51.468;7.146;2022-12-10T08:03:12;22.30;41.30
53314;DHT22;39202;51.468;7.146;2022-12-10T08:08:15;22.30;41.30
53314;DHT22;39202;51.468;7.146;2022-12-10T08:13:16;22.30;42.00
53314;DHT22;39202;51.468;7.146;2022-12-10T08:18:19;22.30;41.30
53314;DHT22;39202;51.468;7.146;2022-12-10T08:23:22;22.30;41.30
53314;DHT22;39202;51.468;7.146;2022-12-10T08:28:24;22.30;41.30
53314;DHT22;39202;51.468;7.146;2022-12-10T08:33:26;22.30;41.30
53314;DHT22;39202;51.468;7.146;2022-12-10T08:38:29;22.30;41.30
53314;DHT22;39202;51.468;7.146;2022-12-10T08:43:31;22.20;41.30
53314;DHT22;39202;51.468;7.146;2022-12-10T08:48:33;22.20;41.30
53314;DHT22;39202;51.468;7.146;2022-12-10T08:53:37;22.20;41.30
53314;DHT22;39202;51.468;7.146;2022-12-10T08:58:39;22.20;41.30
53314;DHT22;39202;51.468;7.146;2022-12-10T09:03:41;22.20;41.30
53314;DHT22;39202;51.468;7.146;2022-12-10T09:08:44;22.20;41.30
53314;DHT22;39202;51.468;7.146;2022-12-10T09:13:46;22.20;41.40
53314;DHT22;39202;51.468;7.146;2022-12-10T09:18:48;22.30;41.50
53314;DHT22;39202;51.468;7.146;2022-12-10T09:23:52;22.30;41.50
53314;DHT22;39202;51.468;7.146;2022-12-10T09:28:53;22.30;41.50
53314;DHT22;39202;51.468;7.146;2022-12-10T09:33:58;22.30;41.50
53314;DHT22;39202;51.468;7.146;2022-12-10T09:39:01;22.30;41.50
53314;DHT22;39202;51.468;7.146;2022-12-10T09:44:07;22.30;41.40
53314;DHT22;39202;51.468;7.146;2022-12-10T09:49:20;22.40;41.40
53314;DHT22;39202;51.468;7.146;2022-12-10T09:54:26;22.40;41.40
53314;DHT22;39202;51.468;7.146;2022-12-10T09:59:30;22.40;41.30
53314;DHT22;39202;51.468;7.146;2022-12-10T10:04:34;22.40;41.30
53314;DHT22;39202;51.468;7.146;2022-12-10T10:09:39;22.40;41.30
53314;DHT22;39202;51.468;7.146;2022-12-10T10:14:43;22.40;41.30
53314;DHT22;39202;51.468;7.146;2022-12-10T10:19:45;22.40;41.30
53314;DHT22;39202;51.468;7.146;2022-12-10T10:24:48;22.40;41.30
53314;DHT22;39202;51.468;7.146;2022-12-10T10:29:52;22.30;41.30
53314;DHT22;39202;51.468;7.146;2022-12-10T10:34:55;22.40;41.30
53314;DHT22;39202;51.468;7.146;2022-12-10T10:39:59;22.30;41.20
53314;DHT22;39202;51.468;7.146;2022-12-10T10:45:02;22.30;41.20
53314;DHT22;39202;51.468;7.146;2022-12-10T10:50:06;22.30;41.20
53314;DHT22;39202;51.468;7.146;2022-12-10T10:55:30;22.30;41.20
53314;DHT22;39202;51.468;7.146;2022-12-10T11:00:32;22.30;41.20
53314;DHT22;39202;51.468;7.146;2022-12-10T11:05:34;22.30;41.20
53314;DHT22;39202;51.468;7.146;2022-12-10T11:10:46;22.30;41.30
53314;DHT22;39202;51.468;7.146;2022-12-10T11:15:55;22.30;41.20
53314;DHT22;39202;51.468;7.146;2022-12-10T11:21:00;22.30;41.30
53314;DHT22;39202;51.468;7.146;2022-12-10T11:26:11;22.30;41.30
53314;DHT22;39202;51.468;7.146;2022-12-10T11:31:28;22.30;41.20
53314;DHT22;39202;51.468;7.146;2022-12-10T11:36:40;22.30;41.20
53314;DHT22;39202;51.468;7.146;2022-12-10T11:41:49;22.30;41.20
53314;DHT22;39202;51.468;7.146;2022-12-10T11:52:40;22.30;41.20
53314;DHT22;39202;51.468;7.146;2022-12-10T11:57:49;22.30;41.20
53314;DHT22;39202;51.468;7.146;2022-12-10T12:08:43;22.30;41.30
53314;DHT22;39202;51.468;7.146;2022-12-10T12:13:53;22.30;41.30
53314;DHT22;39202;51.468;7.146;2022-12-10T12:19:00;22.30;41.30
53314;DHT22;39202;51.468;7.146;2022-12-10T12:24:05;22.40;41.40
53314;DHT22;39202;51.468;7.146;2022-12-10T12:29:15;22.40;41.30
53314;DHT22;39202;51.468;7.146;2022-12-10T12:34:21;22.40;41.20
53314;DHT22;39202;51.468;7.146;2022-12-10T12:39:29;22.40;41.30
53314;DHT22;39202;51.468;7.146;2022-12-10T12:44:41;22.50;41.30
53314;DHT22;39202;51.468;7.146;2022-12-10T12:49:48;22.40;41.20
53314;DHT22;39202;51.468;7.146;2022-12-10T12:54:49;22.40;41.20
53314;DHT22;39202;51.468;7.146;2022-12-10T12:59:57;22.40;41.20
53314;DHT22;39202;51.468;7.146;2022-12-10T13:05:02;22.40;41.10
53314;DHT22;39202;51.468;7.146;2022-12-10T13:10:23;22.40;41.20
53314;DHT22;39202;51.468;7.146;2022-12-10T13:15:34;22.40;41.20
53314;DHT22;39202;51.468;7.146;2022-12-10T13:20:40;22.40;41.10
53314;DHT22;39202;51.468;7.146;2022-12-10T13:25:56;22.30;41.10
53314;DHT22;39202;51.468;7.146;2022-12-10T13:31:21;22.30;41.10
53314;DHT22;39202;51.468;7.146;2022-12-10T13:36:26;22.30;41.10
53314;DHT22;39202;51.468;7.146;2022-12-10T13:41:28;22.30;41.10
53314;DHT22;39202;51.468;7.146;2022-12-10T13:46:59;22.30;41.20
53314;DHT22;39202;51.468;7.146;2022-12-10T13:52:06;22.30;41.20
53314;DHT22;39202;51.468;7.146;2022-12-10T13:57:30;22.30;41.20
53314;DHT22;39202;51.468;7.146;2022-12-10T14:02:52;22.30;41.20
53314;DHT22;39202;51.468;7.146;2022-12-10T14:07:56;22.30;41.30
53314;DHT22;39202;51.468;7.146;2022-12-10T14:13:02;22.30;41.30
53314;DHT22;39202;51.468;7.146;2022-12-10T14:18:10;22.30;41.20
53314;DHT22;39202;51.468;7.146;2022-12-10T14:23:27;22.30;41.20
53314;DHT22;39202;51.468;7.146;2022-12-10T14:28:41;22.40;41.20
53314;DHT22;39202;51.468;7.146;2022-12-10T14:33:46;22.40;41.20
53314;DHT22;39202;51.468;7.146;2022-12-10T14:38:49;22.40;41.20
53314;DHT22;39202;51.468;7.146;2022-12-10T14:43:52;22.40;41.20
53314;DHT22;39202;51.468;7.146;2022-12-10T14:48:55;22.30;41.10
53314;DHT22;39202;51.468;7.146;2022-12-10T14:53:57;22.30;41.00
53314;DHT22;39202;51.468;7.146;2022-12-10T14:59:05;22.30;41.00
53314;DHT22;39202;51.468;7.146;2022-12-10T15:04:14;22.30;41.00
53314;DHT22;39202;51.468;7.146;2022-12-10T15:09:19;22.30;41.00
53314;DHT22;39202;51.468;7.146;2022-12-10T15:14:21;22.30;41.70
53314;DHT22;39202;51.468;7.146;2022-12-10T15:19:32;22.30;41.10
53314;DHT22;39202;51.468;7.146;2022-12-10T15:24:36;22.20;41.10
53314;DHT22;39202;51.468;7.146;2022-12-10T15:29:39;22.30;41.20
53314;DHT22;39202;51.468;7.146;2022-12-10T15:34:45;22.30;41.20
53314;DHT22;39202;51.468;7.146;2022-12-10T15:39:50;22.20;41.20
53314;DHT22;39202;51.468;7.146;2022-12-10T15:44:58;22.30;41.30
53314;DHT22;39202;51.468;7.146;2022-12-10T15:50:01;22.30;41.30
53314;DHT22;39202;51.468;7.146;2022-12-10T15:55:03;22.30;41.20
53314;DHT22;39202;51.468;7.146;2022-12-10T16:00:08;22.30;41.30
53314;DHT22;39202;51.468;7.146;2022-12-10T16:05:14;22.30;41.20
53314;DHT22;39202;51.468;7.146;2022-12-10T16:10:18;22.40;41.20
53314;DHT22;39202;51.468;7.146;2022-12-10T16:15:22;22.40;41.20
53314;DHT22;39202;51.468;7.146;2022-12-10T16:20:27;22.40;41.10
53314;DHT22;39202;51.468;7.146;2022-12-10T16:25:30;22.40;41.20
53314;DHT22;39202;51.468;7.146;2022-12-10T16:30:36;22.40;41.20
53314;DHT22;39202;51.468;7.146;2022-12-10T16:35:39;22.40;41.30
53314;DHT22;39202;51.468;7.146;2022-12-10T16:40:43;22.50;41.40
53314;DHT22;39202;51.468;7.146;2022-12-10T16:45:46;22.50;41.50
53314;DHT22;39202;51.468;7.146;2022-12-10T16:50:50;22.40;41.40
53314;DHT22;39202;51.468;7.146;2022-12-10T16:55:52;22.40;41.40
53314;DHT22;39202;51.468;7.146;2022-12-10T17:00:54;22.40;41.30
53314;DHT22;39202;51.468;7.146;2022-12-10T17:06:00;22.40;41.30
53314;DHT22;39202;51.468;7.146;2022-12-10T17:11:13;22.40;41.30
53314;DHT22;39202;51.468;7.146;2022-12-10T17:16:33;22.30;41.30
53314;DHT22;39202;51.468;7.146;2022-12-10T17:21:36;22.30;41.30
53314;DHT22;39202;51.468;7.146;2022-12-10T17:26:39;22.30;41.30
53314;DHT22;39202;51.468;7.146;2022-12-10T17:31:43;22.30;41.40
53314;DHT22;39202;51.468;7.146;2022-12-10T17:36:47;22.30;41.40
53314;DHT22;39202;51.468;7.146;2022-12-10T17:41:48;22.30;41.40
53314;DHT22;39202;51.468;7.146;2022-12-10T17:46:50;22.30;41.40
53314;DHT22;39202;51.468;7.146;2022-12-10T17:51:53;22.30;41.40
53314;DHT22;39202;51.468;7.146;2022-12-10T17:56:59;22.30;41.40
53314;DHT22;39202;51.468;7.146;2022-12-10T18:02:01;22.30;41.50
53314;DHT22;39202;51.468;7.146;2022-12-10T18:07:09;22.30;41.60
53314;DHT22;39202;51.468;7.146;2022-12-10T18:12:12;22.40;42.00
53314;DHT22;39202;51.468;7.146;2022-12-10T18:17:14;22.40;42.10
53314;DHT22;39202;51.468;7.146;2022-12-10T18:22:18;22.50;42.10
53314;DHT22;39202;51.468;7.146;2022-12-10T18:27:20;22.60;42.20
53314;DHT22;39202;51.468;7.146;2022-12-10T18:32:22;22.80;42.20
53314;DHT22;39202;51.468;7.146;2022-12-10T18:37:25;22.90;42.20
53314;DHT22;39202;51.468;7.146;2022-12-10T18:42:28;22.90;42.10
53314;DHT22;39202;51.468;7.146;2022-12-10T18:47:31;23.00;42.10
53314;DHT22;39202;51.468;7.146;2022-12-10T18:52:34;23.00;42.10
53314;DHT22;39202;51.468;7.146;2022-12-10T18:57:36;23.10;42.10
53314;DHT22;39202;51.468;7.146;2022-12-10T19:02:37;23.10;41.90
53314;DHT22;39202;51.468;7.146;2022-12-10T19:07:41;23.10;41.60
53314;DHT22;39202;51.468;7.146;2022-12-10T19:12:42;23.10;41.40
53314;DHT22;39202;51.468;7.146;2022-12-10T19:17:45;23.10;41.30
53314;DHT22;39202;51.468;7.146;2022-12-10T19:22:48;23.00;41.20
53314;DHT22;39202;51.468;7.146;2022-12-10T19:27:50;22.90;41.10
53314;DHT22;39202;51.468;7.146;2022-12-10T19:32:52;22.90;41.10
53314;DHT22;39202;51.468;7.146;2022-12-10T19:37:55;22.80;41.00
53314;DHT22;39202;51.468;7.146;2022-12-10T19:42:58;22.70;41.00
53314;DHT22;39202;51.468;7.146;2022-12-10T19:48:00;22.70;41.00
53314;DHT22;39202;51.468;7.146;2022-12-10T19:53:03;22.70;41.00
53314;DHT22;39202;51.468;7.146;2022-12-10T19:58:05;22.60;41.00
53314;DHT22;39202;51.468;7.146;2022-12-10T20:03:06;22.50;41.00
53314;DHT22;39202;51.468;7.146;2022-12-10T20:08:10;22.50;41.00
53314;DHT22;39202;51.468;7.146;2022-12-10T20:13:12;22.40;41.00
53314;DHT22;39202;51.468;7.146;2022-12-10T20:18:14;22.40;41.00
53314;DHT22;39202;51.468;7.146;2022-12-10T20:23:17;22.30;41.10
53314;DHT22;39202;51.468;7.146;2022-12-10T20:28:19;22.30;41.10
53314;DHT22;39202;51.468;7.146;2022-12-10T20:33:21;22.20;41.10
53314;DHT22;39202;51.468;7.146;2022-12-10T20:38:24;22.20;41.10
53314;DHT22;39202;51.468;7.146;2022-12-10T20:43:26;22.20;41.20
53314;DHT22;39202;51.468;7.146;2022-12-10T20:48:28;22.10;41.20
53314;DHT22;39202;51.468;7.146;2022-12-10T20:53:31;22.10;41.20
53314;DHT22;39202;51.468;7.146;2022-12-10T20:58:32;22.10;41.40
53314;DHT22;39202;51.468;7.146;2022-12-10T21:03:34;22.10;41.40
53314;DHT22;39202;51.468;7.146;2022-12-10T21:08:37;22.10;41.30
53314;DHT22;39202;51.468;7.146;2022-12-10T21:13:39;22.10;41.30
53314;DHT22;39202;51.468;7.146;2022-12-10T21:18:41;22.10;41.30
53314;DHT22;39202;51.468;7.146;2022-12-10T21:23:44;22.00;41.20
53314;DHT22;39202;51.468;7.146;2022-12-10T21:28:46;22.10;41.30
53314;DHT22;39202;51.468;7.146;2022-12-10T21:33:48;22.00;41.30
53314;DHT22;39202;51.468;7.146;2022-12-10T21:38:51;22.00;41.20
53314;DHT22;39202;51.468;7.146;2022-12-10T21:43:53;22.10;41.40
53314;DHT22;39202;51.468;7.146;2022-12-10T21:48:55;22.00;41.30
53314;DHT22;39202;51.468;7.146;2022-12-10T21:53:59;22.10;41.30
53314;DHT22;39202;51.468;7.146;2022-12-10T21:59:00;22.00;41.30
53314;DHT22;39202;51.468;7.146;2022-12-10T22:04:02;22.00;41.30
53314;DHT22;39202;51.468;7.146;2022-12-10T22:09:05;22.00;41.40
53314;DHT22;39202;51.468;7.146;2022-12-10T22:14:07;22.00;41.80
53314;DHT22;39202;51.468;7.146;2022-12-10T22:19:08;22.00;41.30
53314;DHT22;39202;51.468;7.146;2022-12-10T22:24:11;22.00;41.30
53314;DHT22;39202;51.468;7.146;2022-12-10T22:29:13;22.00;41.30
53314;DHT22;39202;51.468;7.146;2022-12-10T22:34:15;22.00;41.30
53314;DHT22;39202;51.468;7.146;2022-12-10T22:39:18;21.90;41.30
53314;DHT22;39202;51.468;7.146;2022-12-10T22:44:20;21.90;41.40
53314;DHT22;39202;51.468;7.146;2022-12-10T22:49:22;21.90;41.30
53314;DHT22;39202;51.468;7.146;2022-12-10T22:54:25;21.90;41.40
53314;DHT22;39202;51.468;7.146;2022-12-10T22:59:27;21.90;41.40
53314;DHT22;39202;51.468;7.146;2022-12-10T23:04:29;21.90;41.40
53314;DHT22;39202;51.468;7.146;2022-12-10T23:09:32;22.00;41.40
53314;DHT22;39202;51.468;7.146;2022-12-10T23:14:34;22.00;41.40
53314;DHT22;39202;51.468;7.146;2022-12-10T23:19:36;22.00;41.40
53314;DHT22;39202;51.468;7.146;2022-12-10T23:24:39;22.00;41.40
53314;DHT22;39202;51.468;7.146;2022-12-10T23:29:41;22.00;41.30
53314;DHT22;39202;51.468;7.146;2022-12-10T23:34:43;21.90;41.30
53314;DHT22;39202;51.468;7.146;2022-12-10T23:39:46;22.00;41.30
53314;DHT22;39202;51.468;7.146;2022-12-10T23:44:47;22.00;41.30
53314;DHT22;39202;51.468;7.146;2022-12-10T23:49:50;21.90;41.20
53314;DHT22;39202;51.468;7.146;2022-12-10T23:54:53;21.90;41.20
53314;DHT22;39202;51.468;7.146;2022-12-10T23:59:55;21.90;41.20
